sensor_id;sensor_type;location;lat;lon;timestamp;pressure;altitude;pressure_sealevel;temperature;humidity
21111;BME280;10713;51.912;4.494;2023-06-14T00:00:52;101451.47;;;19.62;98.20
21111;BME280;10713;51.912;4.494;2023-06-14T00:03:18;101449.13;;;19.57;98.42
21111;BME280;10713;51.912;4.494;2023-06-14T00:05:45;101448.44;;;19.54;98.66
21111;BME280;10713;51.912;4.494;2023-06-14T00:08:11;101448.66;;;19.51;98.63
21111;BME280;10713;51.912;4.494;2023-06-14T00:10:37;101448.78;;;19.49;100.00
21111;BME280;10713;51.912;4.494;2023-06-14T00:13:03;101450.59;;;19.49;100.00
21111;BME280;10713;51.912;4.494;2023-06-14T00:15:32;101454.22;;;19.48;100.00
21111;BME280;10713;51.912;4.494;2023-06-14T00:17:58;101463.22;;;19.47;100.00
21111;BME280;10713;51.912;4.494;2023-06-14T00:20:30;101459.69;;;19.46;100.00
21111;BME280;10713;51.912;4.494;2023-06-14T00:22:57;101466.19;;;19.42;100.00
21111;BME280;10713;51.912;4.494;2023-06-14T00:25:24;101461.03;;;19.39;100.00
21111;BME280;10713;51.912;4.494;2023-06-14T00:27:51;101459.63;;;19.33;100.00
21111;BME280;10713;51.912;4.494;2023-06-14T00:30:16;101466.88;;;19.31;100.00
21111;BME280;10713;51.912;4.494;2023-06-14T00:32:42;101459.94;;;19.29;100.00
21111;BME280;10713;51.912;4.494;2023-06-14T00:35:08;101462.16;;;19.22;100.00
21111;BME280;10713;51.912;4.494;2023-06-14T00:37:34;101457.78;;;19.21;100.00
21111;BME280;10713;51.912;4.494;2023-06-14T00:39:59;101458.63;;;19.22;100.00
21111;BME280;10713;51.912;4.494;2023-06-14T00:42:26;101456.25;;;19.17;100.00
21111;BME280;10713;51.912;4.494;2023-06-14T00:44:51;101459.88;;;19.16;100.00
21111;BME280;10713;51.912;4.494;2023-06-14T00:47:17;101458.38;;;19.12;100.00
21111;BME280;10713;51.912;4.494;2023-06-14T00:49:44;101462.19;;;19.08;100.00
21111;BME280;10713;51.912;4.494;2023-06-14T00:52:10;101466.81;;;19.06;100.00
21111;BME280;10713;51.912;4.494;2023-06-14T00:54:40;101472.44;;;19.01;100.00
21111;BME280;10713;51.912;4.494;2023-06-14T00:57:07;101459.47;;;18.95;100.00
21111;BME280;10713;51.912;4.494;2023-06-14T00:59:34;101462.56;;;18.89;100.00
21111;BME280;10713;51.912;4.494;2023-06-14T01:02:00;101468.94;;;18.86;100.00
21111;BME280;10713;51.912;4.494;2023-06-14T01:04:25;101462.84;;;18.84;100.00
21111;BME280;10713;51.912;4.494;2023-06-14T01:07:02;101462.75;;;18.86;100.00
21111;BME280;10713;51.912;4.494;2023-06-14T01:15:22;101459.78;;;18.76;100.00
21111;BME280;10713;51.912;4.494;2023-06-14T01:17:51;101463.78;;;18.69;100.00
21111;BME280;10713;51.912;4.494;2023-06-14T01:20:22;101455.09;;;18.65;100.00
21111;BME280;10713;51.912;4.494;2023-06-14T01:22:51;101458.84;;;18.63;100.00
21111;BME280;10713;51.912;4.494;2023-06-14T01:25:18;101452.72;;;18.61;100.00
21111;BME280;10713;51.912;4.494;2023-06-14T01:27:47;101454.63;;;18.59;100.00
21111;BME280;10713;51.912;4.494;2023-06-14T01:30:13;101453.78;;;18.58;100.00
21111;BME280;10713;51.912;4.494;2023-06-14T01:32:39;101452.81;;;18.59;100.00
21111;BME280;10713;51.912;4.494;2023-06-14T01:35:05;101453.56;;;18.61;100.00
21111;BME280;10713;51.912;4.494;2023-06-14T01:37:31;101448.22;;;18.61;100.00
21111;BME280;10713;51.912;4.494;2023-06-14T01:39:57;101452.06;;;18.57;100.00
21111;BME280;10713;51.912;4.494;2023-06-14T01:42:23;101451.28;;;18.55;100.00
21111;BME280;10713;51.912;4.494;2023-06-14T01:44:51;101454.81;;;18.56;100.00
21111;BME280;10713;51.912;4.494;2023-06-14T01:47:17;101451.38;;;18.54;100.00
21111;BME280;10713;51.912;4.494;2023-06-14T01:49:42;101450.63;;;18.52;100.00
21111;BME280;10713;51.912;4.494;2023-06-14T01:52:08;101451.50;;;18.52;100.00
21111;BME280;10713;51.912;4.494;2023-06-14T01:54:35;101446.41;;;18.48;100.00
21111;BME280;10713;51.912;4.494;2023-06-14T01:57:03;101444.78;;;18.45;100.00
21111;BME280;10713;51.912;4.494;2023-06-14T01:59:28;101453.84;;;18.42;100.00
21111;BME280;10713;51.912;4.494;2023-06-14T02:01:53;101446.16;;;18.38;100.00
21111;BME280;10713;51.912;4.494;2023-06-14T02:04:19;101446.34;;;18.35;100.00
21111;BME280;10713;51.912;4.494;2023-06-14T02:06:44;101449.88;;;18.35;100.00
21111;BME280;10713;51.912;4.494;2023-06-14T02:09:10;101450.91;;;18.33;100.00
21111;BME280;10713;51.912;4.494;2023-06-14T02:11:35;101455.50;;;18.31;100.00
21111;BME280;10713;51.912;4.494;2023-06-14T02:14:00;101457.50;;;18.27;100.00
21111;BME280;10713;51.912;4.494;2023-06-14T02:16:26;101447.28;;;18.19;100.00
21111;BME280;10713;51.912;4.494;2023-06-14T02:18:54;101449.19;;;18.17;100.00
21111;BME280;10713;51.912;4.494;2023-06-14T02:21:20;101451.88;;;18.17;100.00
21111;BME280;10713;51.912;4.494;2023-06-14T02:23:45;101460.75;;;18.18;100.00
21111;BME280;10713;51.912;4.494;2023-06-14T02:26:11;101461.78;;;18.15;100.00
21111;BME280;10713;51.912;4.494;2023-06-14T02:28:36;101459.19;;;18.14;100.00
21111;BME280;10713;51.912;4.494;2023-06-14T02:31:01;101468.16;;;18.13;100.00
21111;BME280;10713;51.912;4.494;2023-06-14T02:33:27;101461.13;;;18.12;100.00
21111;BME280;10713;51.912;4.494;2023-06-14T02:35:52;101465.44;;;18.14;100.00
21111;BME280;10713;51.912;4.494;2023-06-14T02:38:18;101465.22;;;18.17;100.00
21111;BME280;10713;51.912;4.494;2023-06-14T02:40:43;101462.00;;;18.27;100.00
21111;BME280;10713;51.912;4.494;2023-06-14T02:43:08;101470.97;;;18.40;100.00
21111;BME280;10713;51.912;4.494;2023-06-14T02:45:34;101457.31;;;18.44;100.00
21111;BME280;10713;51.912;4.494;2023-06-14T02:47:59;101470.28;;;18.36;100.00
21111;BME280;10713;51.912;4.494;2023-06-14T02:50:25;101464.06;;;18.21;100.00
21111;BME280;10713;51.912;4.494;2023-06-14T02:52:51;101462.44;;;18.19;100.00
21111;BME280;10713;51.912;4.494;2023-06-14T02:55:17;101465.22;;;18.17;100.00
21111;BME280;10713;51.912;4.494;2023-06-14T02:57:43;101463.50;;;18.16;100.00
21111;BME280;10713;51.912;4.494;2023-06-14T03:00:09;101475.22;;;18.14;100.00
21111;BME280;10713;51.912;4.494;2023-06-14T03:02:35;101474.19;;;18.16;100.00
21111;BME280;10713;51.912;4.494;2023-06-14T03:05:00;101472.56;;;18.14;100.00
21111;BME280;10713;51.912;4.494;2023-06-14T03:07:28;101472.94;;;18.08;100.00
21111;BME280;10713;51.912;4.494;2023-06-14T03:09:55;101473.91;;;18.07;100.00
21111;BME280;10713;51.912;4.494;2023-06-14T03:12:20;101477.69;;;18.02;100.00
21111;BME280;10713;51.912;4.494;2023-06-14T03:14:46;101484.63;;;17.91;100.00
21111;BME280;10713;51.912;4.494;2023-06-14T03:17:12;101479.78;;;17.83;100.00
21111;BME280;10713;51.912;4.494;2023-06-14T03:19:37;101488.91;;;17.79;100.00
21111;BME280;10713;51.912;4.494;2023-06-14T03:22:03;101489.66;;;17.81;100.00
21111;BME280;10713;51.912;4.494;2023-06-14T03:24:28;101489.91;;;17.76;100.00
21111;BME280;10713;51.912;4.494;2023-06-14T03:26:54;101502.28;;;17.63;100.00
21111;BME280;10713;51.912;4.494;2023-06-14T03:29:20;101500.63;;;17.61;100.00
21111;BME280;10713;51.912;4.494;2023-06-14T03:32:02;101502.88;;;17.52;100.00
21111;BME280;10713;51.912;4.494;2023-06-14T03:34:28;101505.91;;;17.46;100.00
21111;BME280;10713;51.912;4.494;2023-06-14T03:36:53;101507.44;;;17.50;100.00
21111;BME280;10713;51.912;4.494;2023-06-14T03:39:19;101507.25;;;17.53;100.00
21111;BME280;10713;51.912;4.494;2023-06-14T03:41:45;101510.63;;;17.57;100.00
21111;BME280;10713;51.912;4.494;2023-06-14T03:44:10;101518.28;;;17.63;100.00
21111;BME280;10713;51.912;4.494;2023-06-14T03:46:36;101504.16;;;17.61;100.00
21111;BME280;10713;51.912;4.494;2023-06-14T03:49:01;101516.28;;;17.67;100.00
21111;BME280;10713;51.912;4.494;2023-06-14T03:51:28;101509.25;;;17.66;100.00
21111;BME280;10713;51.912;4.494;2023-06-14T03:53:54;101515.63;;;17.63;100.00
21111;BME280;10713;51.912;4.494;2023-06-14T03:56:21;101508.72;;;17.59;100.00
21111;BME280;10713;51.912;4.494;2023-06-14T03:58:46;101506.91;;;17.60;100.00
21111;BME280;10713;51.912;4.494;2023-06-14T04:01:11;101513.97;;;17.61;100.00
21111;BME280;10713;51.912;4.494;2023-06-14T04:03:37;101516.47;;;17.64;100.00
21111;BME280;10713;51.912;4.494;2023-06-14T04:06:04;101517.31;;;17.64;100.00
21111;BME280;10713;51.912;4.494;2023-06-14T04:08:30;101517.25;;;17.66;100.00
21111;BME280;10713;51.912;4.494;2023-06-14T04:10:56;101515.84;;;17.74;100.00
21111;BME280;10713;51.912;4.494;2023-06-14T04:13:21;101517.03;;;18.15;100.00
21111;BME280;10713;51.912;4.494;2023-06-14T04:15:46;101520.25;;;18.79;100.00
21111;BME280;10713;51.912;4.494;2023-06-14T04:18:12;101526.78;;;19.16;100.00
21111;BME280;10713;51.912;4.494;2023-06-14T04:20:38;101528.69;;;19.55;100.00
21111;BME280;10713;51.912;4.494;2023-06-14T04:23:17;101529.84;;;20.18;100.00
21111;BME280;10713;51.912;4.494;2023-06-14T04:25:46;101527.03;;;20.97;100.00
21111;BME280;10713;51.912;4.494;2023-06-14T04:28:13;101528.56;;;21.38;100.00
21111;BME280;10713;51.912;4.494;2023-06-14T04:30:40;101516.84;;;21.39;100.00
21111;BME280;10713;51.912;4.494;2023-06-14T04:33:05;101522.38;;;21.72;100.00
21111;BME280;10713;51.912;4.494;2023-06-14T04:35:31;101525.16;;;21.95;98.02
21111;BME280;10713;51.912;4.494;2023-06-14T04:37:58;101526.28;;;21.79;93.64
21111;BME280;10713;51.912;4.494;2023-06-14T04:40:24;101521.47;;;21.24;96.38
21111;BME280;10713;51.912;4.494;2023-06-14T04:42:50;101529.56;;;20.61;100.00
21111;BME280;10713;51.912;4.494;2023-06-14T04:45:16;101526.81;;;19.97;100.00
21111;BME280;10713;51.912;4.494;2023-06-14T04:47:42;101530.75;;;19.65;100.00
21111;BME280;10713;51.912;4.494;2023-06-14T04:50:07;101527.38;;;20.15;100.00
21111;BME280;10713;51.912;4.494;2023-06-14T04:52:33;101527.25;;;20.93;100.00
21111;BME280;10713;51.912;4.494;2023-06-14T04:55:00;101520.59;;;21.60;95.88
21111;BME280;10713;51.912;4.494;2023-06-14T04:57:26;101520.41;;;22.10;91.32
21111;BME280;10713;51.912;4.494;2023-06-14T04:59:52;101522.47;;;22.53;88.70
21111;BME280;10713;51.912;4.494;2023-06-14T05:02:23;101525.63;;;22.80;83.96
21111;BME280;10713;51.912;4.494;2023-06-14T05:04:50;101531.69;;;22.95;82.30
21111;BME280;10713;51.912;4.494;2023-06-14T05:07:15;101524.88;;;23.23;79.49
21111;BME280;10713;51.912;4.494;2023-06-14T05:09:41;101531.63;;;23.72;76.05
21111;BME280;10713;51.912;4.494;2023-06-14T05:12:06;101531.19;;;24.30;72.59
21111;BME280;10713;51.912;4.494;2023-06-14T05:14:35;101533.47;;;24.86;69.61
21111;BME280;10713;51.912;4.494;2023-06-14T05:17:01;101538.38;;;25.02;66.94
21111;BME280;10713;51.912;4.494;2023-06-14T05:19:27;101541.66;;;25.06;65.67
21111;BME280;10713;51.912;4.494;2023-06-14T05:21:53;101544.91;;;25.09;64.40
21111;BME280;10713;51.912;4.494;2023-06-14T05:24:19;101546.63;;;25.41;62.70
21111;BME280;10713;51.912;4.494;2023-06-14T05:26:44;101543.53;;;25.84;61.76
21111;BME280;10713;51.912;4.494;2023-06-14T05:29:10;101550.06;;;26.11;59.36
21111;BME280;10713;51.912;4.494;2023-06-14T05:31:35;101547.97;;;26.62;56.92
21111;BME280;10713;51.912;4.494;2023-06-14T05:34:01;101552.06;;;26.76;55.50
21111;BME280;10713;51.912;4.494;2023-06-14T05:36:26;101545.00;;;26.55;54.77
21111;BME280;10713;51.912;4.494;2023-06-14T05:38:53;101535.66;;;26.20;54.36
21111;BME280;10713;51.912;4.494;2023-06-14T05:41:27;101544.63;;;26.21;52.86
21111;BME280;10713;51.912;4.494;2023-06-14T05:43:56;101550.06;;;26.11;51.69
21111;BME280;10713;51.912;4.494;2023-06-14T05:46:22;101549.47;;;26.17;51.50
21111;BME280;10713;51.912;4.494;2023-06-14T05:48:51;101559.28;;;26.28;51.11
21111;BME280;10713;51.912;4.494;2023-06-14T05:51:17;101560.13;;;26.28;50.19
21111;BME280;10713;51.912;4.494;2023-06-14T05:53:46;101558.16;;;26.31;49.76
21111;BME280;10713;51.912;4.494;2023-06-14T05:56:11;101559.28;;;26.28;49.08
21111;BME280;10713;51.912;4.494;2023-06-14T05:58:37;101554.00;;;26.36;48.11
21111;BME280;10713;51.912;4.494;2023-06-14T06:01:02;101549.56;;;26.35;47.56
21111;BME280;10713;51.912;4.494;2023-06-14T06:03:28;101542.38;;;26.73;46.80
21111;BME280;10713;51.912;4.494;2023-06-14T06:05:54;101550.47;;;26.83;46.84
21111;BME280;10713;51.912;4.494;2023-06-14T06:08:20;101547.34;;;27.05;45.63
21111;BME280;10713;51.912;4.494;2023-06-14T06:10:45;101551.00;;;27.14;45.52
21111;BME280;10713;51.912;4.494;2023-06-14T06:13:11;101549.47;;;27.57;45.08
21111;BME280;10713;51.912;4.494;2023-06-14T06:15:36;101559.31;;;27.58;44.68
21111;BME280;10713;51.912;4.494;2023-06-14T06:18:01;101556.41;;;27.87;44.15
21111;BME280;10713;51.912;4.494;2023-06-14T06:20:27;101559.78;;;27.53;43.22
21111;BME280;10713;51.912;4.494;2023-06-14T06:22:57;101564.94;;;27.29;44.06
21111;BME280;10713;51.912;4.494;2023-06-14T06:25:23;101560.16;;;27.13;44.43
21111;BME280;10713;51.912;4.494;2023-06-14T06:27:52;101569.13;;;27.13;44.13
21111;BME280;10713;51.912;4.494;2023-06-14T06:30:18;101572.00;;;27.39;43.72
21111;BME280;10713;51.912;4.494;2023-06-14T06:32:44;101562.72;;;27.60;43.83
21111;BME280;10713;51.912;4.494;2023-06-14T06:35:09;101570.78;;;27.52;43.86
21111;BME280;10713;51.912;4.494;2023-06-14T06:37:36;101566.91;;;27.36;44.10
21111;BME280;10713;51.912;4.494;2023-06-14T06:40:02;101566.19;;;27.80;43.67
21111;BME280;10713;51.912;4.494;2023-06-14T06:42:29;101570.88;;;27.78;43.52
21111;BME280;10713;51.912;4.494;2023-06-14T06:44:54;101571.09;;;27.49;43.85
21111;BME280;10713;51.912;4.494;2023-06-14T06:47:20;101577.63;;;27.56;44.08
21111;BME280;10713;51.912;4.494;2023-06-14T06:49:45;101581.44;;;27.81;43.95
21111;BME280;10713;51.912;4.494;2023-06-14T06:52:10;101580.00;;;28.30;43.20
21111;BME280;10713;51.912;4.494;2023-06-14T06:54:36;101587.44;;;28.28;42.94
21111;BME280;10713;51.912;4.494;2023-06-14T06:57:01;101594.94;;;28.52;42.44
21111;BME280;10713;51.912;4.494;2023-06-14T06:59:27;101593.34;;;28.68;42.49
21111;BME280;10713;51.912;4.494;2023-06-14T07:01:52;101590.00;;;28.48;42.49
21111;BME280;10713;51.912;4.494;2023-06-14T07:04:18;101591.91;;;28.38;42.56
21111;BME280;10713;51.912;4.494;2023-06-14T07:06:43;101600.81;;;28.22;42.64
21111;BME280;10713;51.912;4.494;2023-06-14T07:09:09;101600.56;;;28.33;42.24
21111;BME280;10713;51.912;4.494;2023-06-14T07:11:38;101602.38;;;28.24;42.41
21111;BME280;10713;51.912;4.494;2023-06-14T07:14:04;101605.91;;;28.07;41.68
21111;BME280;10713;51.912;4.494;2023-06-14T07:16:30;101598.81;;;27.88;42.21
21111;BME280;10713;51.912;4.494;2023-06-14T07:18:55;101595.59;;;28.28;41.86
21111;BME280;10713;51.912;4.494;2023-06-14T07:21:21;101610.59;;;28.85;41.41
21111;BME280;10713;51.912;4.494;2023-06-14T07:23:47;101601.00;;;28.72;41.05
21111;BME280;10713;51.912;4.494;2023-06-14T07:26:12;101613.59;;;28.73;40.83
21111;BME280;10713;51.912;4.494;2023-06-14T07:28:37;101606.16;;;28.84;40.98
21111;BME280;10713;51.912;4.494;2023-06-14T07:31:03;101608.22;;;29.08;40.45
21111;BME280;10713;51.912;4.494;2023-06-14T07:33:28;101610.44;;;28.60;40.36
21111;BME280;10713;51.912;4.494;2023-06-14T07:35:53;101607.88;;;28.85;39.82
21111;BME280;10713;51.912;4.494;2023-06-14T07:38:19;101620.81;;;28.39;40.30
21111;BME280;10713;51.912;4.494;2023-06-14T07:40:44;101620.38;;;28.07;40.16
21111;BME280;10713;51.912;4.494;2023-06-14T07:43:10;101617.31;;;28.28;40.65
21111;BME280;10713;51.912;4.494;2023-06-14T07:45:36;101617.69;;;28.51;40.99
21111;BME280;10713;51.912;4.494;2023-06-14T07:48:02;101622.31;;;28.41;40.39
21111;BME280;10713;51.912;4.494;2023-06-14T07:50:28;101623.28;;;28.32;40.53
21111;BME280;10713;51.912;4.494;2023-06-14T07:52:53;101625.09;;;28.67;40.15
21111;BME280;10713;51.912;4.494;2023-06-14T07:55:20;101627.41;;;29.14;39.82
21111;BME280;10713;51.912;4.494;2023-06-14T07:57:45;101613.50;;;29.17;40.05
21111;BME280;10713;51.912;4.494;2023-06-14T08:00:12;101618.16;;;28.99;40.37
21111;BME280;10713;51.912;4.494;2023-06-14T08:02:41;101620.00;;;28.98;40.43
21111;BME280;10713;51.912;4.494;2023-06-14T08:05:08;101631.53;;;29.27;39.84
21111;BME280;10713;51.912;4.494;2023-06-14T08:07:34;101625.44;;;28.98;39.68
21111;BME280;10713;51.912;4.494;2023-06-14T08:09:59;101627.53;;;28.79;39.71
21111;BME280;10713;51.912;4.494;2023-06-14T08:12:25;101623.41;;;29.01;39.20
21111;BME280;10713;51.912;4.494;2023-06-14T08:14:51;101629.56;;;29.03;39.35
21111;BME280;10713;51.912;4.494;2023-06-14T08:17:16;101622.28;;;29.03;39.35
21111;BME280;10713;51.912;4.494;2023-06-14T08:19:42;101630.72;;;29.00;39.61
21111;BME280;10713;51.912;4.494;2023-06-14T08:22:07;101636.84;;;29.02;39.73
21111;BME280;10713;51.912;4.494;2023-06-14T08:24:33;101650.78;;;28.99;39.38
21111;BME280;10713;51.912;4.494;2023-06-14T08:26:58;101630.88;;;28.72;39.32
21111;BME280;10713;51.912;4.494;2023-06-14T08:29:26;101638.44;;;28.61;39.03
21111;BME280;10713;51.912;4.494;2023-06-14T08:31:54;101639.03;;;28.72;38.87
21111;BME280;10713;51.912;4.494;2023-06-14T08:34:20;101631.84;;;28.89;38.93
21111;BME280;10713;51.912;4.494;2023-06-14T08:36:45;101632.88;;;28.88;38.85
21111;BME280;10713;51.912;4.494;2023-06-14T08:39:10;101646.13;;;28.91;38.04
21111;BME280;10713;51.912;4.494;2023-06-14T08:41:36;101641.75;;;28.72;37.80
21111;BME280;10713;51.912;4.494;2023-06-14T08:44:02;101636.81;;;28.42;37.85
21111;BME280;10713;51.912;4.494;2023-06-14T08:46:30;101634.75;;;28.44;38.28
21111;BME280;10713;51.912;4.494;2023-06-14T08:48:58;101649.34;;;28.25;37.82
21111;BME280;10713;51.912;4.494;2023-06-14T08:51:25;101642.13;;;27.80;38.39
21111;BME280;10713;51.912;4.494;2023-06-14T08:53:55;101643.72;;;27.73;38.75
21111;BME280;10713;51.912;4.494;2023-06-14T08:56:28;101649.34;;;27.89;38.43
21111;BME280;10713;51.912;4.494;2023-06-14T08:58:55;101643.38;;;27.85;38.56
21111;BME280;10713;51.912;4.494;2023-06-14T09:01:22;101644.72;;;27.81;38.46
21111;BME280;10713;51.912;4.494;2023-06-14T09:03:48;101655.44;;;27.46;38.52
21111;BME280;10713;51.912;4.494;2023-06-14T09:06:14;101657.25;;;27.55;38.64
21111;BME280;10713;51.912;4.494;2023-06-14T09:08:42;101639.34;;;27.90;38.66
21111;BME280;10713;51.912;4.494;2023-06-14T09:11:11;101642.13;;;27.80;38.31
21111;BME280;10713;51.912;4.494;2023-06-14T09:13:37;101645.94;;;28.05;38.00
21111;BME280;10713;51.912;4.494;2023-06-14T09:16:03;101648.66;;;28.05;37.61
21111;BME280;10713;51.912;4.494;2023-06-14T09:21:06;101646.31;;;28.46;37.58
21111;BME280;10713;51.912;4.494;2023-06-14T09:23:46;101648.34;;;28.08;37.21
21111;BME280;10713;51.912;4.494;2023-06-14T09:26:17;101654.78;;;28.07;37.50
21111;BME280;10713;51.912;4.494;2023-06-14T09:28:47;101635.53;;;28.18;38.02
21111;BME280;10713;51.912;4.494;2023-06-14T09:31:15;101660.13;;;28.17;37.33
21111;BME280;10713;51.912;4.494;2023-06-14T09:33:49;101654.78;;;28.07;37.03
21111;BME280;10713;51.912;4.494;2023-06-14T09:36:16;101653.78;;;28.08;37.21
21111;BME280;10713;51.912;4.494;2023-06-14T09:38:51;101650.75;;;28.11;37.14
21111;BME280;10713;51.912;4.494;2023-06-14T09:41:17;101665.31;;;27.92;37.56
21111;BME280;10713;51.912;4.494;2023-06-14T09:43:43;101662.81;;;27.81;37.24
21111;BME280;10713;51.912;4.494;2023-06-14T09:46:10;101656.72;;;27.79;36.70
21111;BME280;10713;51.912;4.494;2023-06-14T09:48:36;101657.50;;;27.34;37.02
21111;BME280;10713;51.912;4.494;2023-06-14T09:51:01;101676.72;;;27.68;36.85
21111;BME280;10713;51.912;4.494;2023-06-14T09:53:30;101660.16;;;27.71;36.14
21111;BME280;10713;51.912;4.494;2023-06-14T09:55:57;101661.06;;;28.07;36.51
21111;BME280;10713;51.912;4.494;2023-06-14T09:58:26;101660.91;;;28.09;36.17
21111;BME280;10713;51.912;4.494;2023-06-14T10:00:54;101659.03;;;28.10;36.23
21111;BME280;10713;51.912;4.494;2023-06-14T10:03:25;101663.69;;;28.17;36.07
21111;BME280;10713;51.912;4.494;2023-06-14T10:05:53;101665.09;;;28.39;35.85
21111;BME280;10713;51.912;4.494;2023-06-14T10:08:27;101658.34;;;28.43;35.71
21111;BME280;10713;51.912;4.494;2023-06-14T10:10:55;101633.06;;;28.43;35.82
21111;BME280;10713;51.912;4.494;2023-06-14T10:13:20;101668.50;;;28.23;35.44
21111;BME280;10713;51.912;4.494;2023-06-14T10:16:22;101651.47;;;28.13;35.86
21111;BME280;10713;51.912;4.494;2023-06-14T10:23:51;101656.09;;;28.03;35.90
21111;BME280;10713;51.912;4.494;2023-06-14T10:26:21;101667.66;;;28.05;34.69
21111;BME280;10713;51.912;4.494;2023-06-14T10:28:58;101654.41;;;28.02;33.66
21111;BME280;10713;51.912;4.494;2023-06-14T10:31:40;101657.88;;;28.12;32.56
21111;BME280;10713;51.912;4.494;2023-06-14T10:34:06;101640.25;;;28.52;32.83
21111;BME280;10713;51.912;4.494;2023-06-14T10:36:32;101653.31;;;28.74;33.16
21111;BME280;10713;51.912;4.494;2023-06-14T10:39:08;101659.41;;;28.33;32.91
21111;BME280;10713;51.912;4.494;2023-06-14T10:41:39;101659.13;;;28.00;32.71
21111;BME280;10713;51.912;4.494;2023-06-14T10:46:39;101644.28;;;28.30;32.61
21111;BME280;10713;51.912;4.494;2023-06-14T10:49:05;101679.75;;;28.28;32.39
21111;BME280;10713;51.912;4.494;2023-06-14T10:51:39;101656.19;;;27.93;32.37
21111;BME280;10713;51.912;4.494;2023-06-14T10:54:20;101651.59;;;28.12;32.54
21111;BME280;10713;51.912;4.494;2023-06-14T10:56:51;101657.72;;;28.32;32.31
21111;BME280;10713;51.912;4.494;2023-06-14T10:59:18;101665.94;;;28.40;32.09
21111;BME280;10713;51.912;4.494;2023-06-14T11:01:57;101658.41;;;28.16;32.31
21111;BME280;10713;51.912;4.494;2023-06-14T11:04:44;101661.00;;;27.99;32.18
21111;BME280;10713;51.912;4.494;2023-06-14T11:10:39;101657.25;;;27.55;31.85
21111;BME280;10713;51.912;4.494;2023-06-14T11:13:06;101660.56;;;27.49;33.06
21111;BME280;10713;51.912;4.494;2023-06-14T11:15:33;101663.88;;;27.43;32.74
21111;BME280;10713;51.912;4.494;2023-06-14T11:18:06;101659.91;;;27.37;32.78
21111;BME280;10713;51.912;4.494;2023-06-14T11:20:33;101653.38;;;27.30;32.88
21111;BME280;10713;51.912;4.494;2023-06-14T11:23:01;101660.63;;;27.02;32.24
21111;BME280;10713;51.912;4.494;2023-06-14T11:25:27;101649.59;;;27.03;32.77
21111;BME280;10713;51.912;4.494;2023-06-14T11:27:56;101649.06;;;27.00;33.17
21111;BME280;10713;51.912;4.494;2023-06-14T11:30:22;101645.38;;;26.91;33.50
21111;BME280;10713;51.912;4.494;2023-06-14T11:32:48;101637.31;;;26.71;33.39
21111;BME280;10713;51.912;4.494;2023-06-14T11:35:15;101632.00;;;26.80;33.68
21111;BME280;10713;51.912;4.494;2023-06-14T11:37:40;101638.22;;;27.00;33.54
21111;BME280;10713;51.912;4.494;2023-06-14T11:40:08;101645.47;;;27.18;33.38
21111;BME280;10713;51.912;4.494;2023-06-14T11:42:35;101655.06;;;26.93;33.86
21111;BME280;10713;51.912;4.494;2023-06-14T11:45:01;101643.75;;;26.41;33.92
21111;BME280;10713;51.912;4.494;2023-06-14T11:47:32;101642.75;;;26.42;33.98
21111;BME280;10713;51.912;4.494;2023-06-14T11:49:59;101631.22;;;26.31;34.14
21111;BME280;10713;51.912;4.494;2023-06-14T11:52:25;101638.47;;;26.40;34.94
21111;BME280;10713;51.912;4.494;2023-06-14T11:54:51;101635.75;;;26.49;34.21
21111;BME280;10713;51.912;4.494;2023-06-14T11:57:18;101640.75;;;26.44;34.19
21111;BME280;10713;51.912;4.494;2023-06-14T11:59:44;101636.19;;;26.45;33.95
21111;BME280;10713;51.912;4.494;2023-06-14T12:02:10;101634.19;;;26.37;34.12
21111;BME280;10713;51.912;4.494;2023-06-14T12:04:41;101623.53;;;26.26;34.31
21111;BME280;10713;51.912;4.494;2023-06-14T12:07:11;101629.94;;;26.25;34.05
21111;BME280;10713;51.912;4.494;2023-06-14T12:09:41;101626.22;;;26.45;33.64
21111;BME280;10713;51.912;4.494;2023-06-14T12:12:09;101629.06;;;26.73;33.67
21111;BME280;10713;51.912;4.494;2023-06-14T12:14:36;101607.44;;;26.24;33.95
21111;BME280;10713;51.912;4.494;2023-06-14T12:17:05;101622.25;;;26.11;34.40
21111;BME280;10713;51.912;4.494;2023-06-14T12:19:32;101668.50;;;25.98;34.47
21111;BME280;10713;51.912;4.494;2023-06-14T12:21:59;101638.47;;;25.91;34.45
21111;BME280;10713;51.912;4.494;2023-06-14T12:24:28;101641.34;;;25.99;33.74
21111;BME280;10713;51.912;4.494;2023-06-14T12:26:54;101634.78;;;26.12;33.80
21111;BME280;10713;51.912;4.494;2023-06-14T12:29:19;101633.91;;;25.92;33.92
21111;BME280;10713;51.912;4.494;2023-06-14T12:31:45;101629.78;;;25.97;33.76
21111;BME280;10713;51.912;4.494;2023-06-14T12:34:10;101635.47;;;26.04;34.08
21111;BME280;10713;51.912;4.494;2023-06-14T12:36:35;101638.06;;;26.25;33.92
21111;BME280;10713;51.912;4.494;2023-06-14T12:39:07;101645.91;;;26.28;33.42
21111;BME280;10713;51.912;4.494;2023-06-14T12:41:33;101642.47;;;25.97;33.82
21111;BME280;10713;51.912;4.494;2023-06-14T12:43:59;101630.22;;;25.83;33.87
21111;BME280;10713;51.912;4.494;2023-06-14T12:46:25;101625.53;;;25.85;34.13
21111;BME280;10713;51.912;4.494;2023-06-14T12:48:50;101630.22;;;25.93;33.78
21111;BME280;10713;51.912;4.494;2023-06-14T12:51:16;101624.38;;;25.88;33.93
21111;BME280;10713;51.912;4.494;2023-06-14T12:53:41;101633.00;;;25.72;34.26
21111;BME280;10713;51.912;4.494;2023-06-14T12:56:07;101629.44;;;25.61;34.13
21111;BME280;10713;51.912;4.494;2023-06-14T12:58:32;101630.88;;;25.66;34.30
21111;BME280;10713;51.912;4.494;2023-06-14T13:00:58;101630.75;;;25.67;34.16
21111;BME280;10713;51.912;4.494;2023-06-14T13:03:23;101638.41;;;25.72;34.13